createdAt,value
2018-03-18T00:00:52.269Z,95677.87
2018-03-18T00:03:20.033Z,95677.44
2018-03-18T00:05:47.875Z,95685.27
2018-03-18T00:08:15.450Z,95671.90
2018-03-18T00:10:42.996Z,95675.12
2018-03-18T00:13:11.498Z,95677.33
2018-03-18T00:15:39.118Z,95674.13
2018-03-18T00:18:06.801Z,95682.31
2018-03-18T00:20:34.364Z,95681.47
2018-03-18T00:23:01.899Z,95689.77
2018-03-18T00:25:29.506Z,95684.92
2018-03-18T00:27:57.031Z,95684.71
2018-03-18T00:30:24.581Z,95682.78
2018-03-18T00:32:52.144Z,95689.52
2018-03-18T00:35:19.675Z,95688.66
2018-03-18T00:37:47.468Z,95684.70
2018-03-18T00:40:15.048Z,95684.52
2018-03-18T00:42:42.909Z,95682.64
2018-03-18T00:45:10.429Z,95685.23
2018-03-18T00:47:37.964Z,95682.64
2018-03-18T00:50:05.509Z,95685.05
2018-03-18T00:52:33.027Z,95687.92
2018-03-18T00:55:00.914Z,95684.88
2018-03-18T00:57:28.432Z,95681.94
2018-03-18T00:59:55.956Z,95681.88
2018-03-18T01:02:23.506Z,95677.94
2018-03-18T01:04:51.201Z,95674.47
2018-03-18T01:07:18.759Z,95681.73
2018-03-18T01:09:46.279Z,95683.55
2018-03-18T01:12:13.794Z,95672.41
2018-03-18T01:14:41.341Z,95675.16
2018-03-18T01:17:09.782Z,95671.80
2018-03-18T01:19:38.055Z,95667.71
2018-03-18T01:22:05.572Z,95669.98
2018-03-18T01:24:33.100Z,95666.83
2018-03-18T01:27:00.656Z,95663.27
2018-03-18T01:29:28.178Z,95659.68
2018-03-18T01:31:56.133Z,95658.23
2018-03-18T01:34:23.641Z,95665.70
2018-03-18T01:36:51.166Z,95658.59
2018-03-18T01:39:18.732Z,95653.48
2018-03-18T01:41:46.253Z,95648.74
2018-03-18T01:44:13.823Z,95652.92
2018-03-18T01:46:41.342Z,95644.59
2018-03-18T01:49:08.876Z,95642.32
2018-03-18T01:51:36.420Z,95645.92
2018-03-18T01:54:03.934Z,95642.75
2018-03-18T01:56:31.489Z,95645.04
2018-03-18T01:58:59.010Z,95636.86
2018-03-18T02:01:26.530Z,95642.59
2018-03-18T02:03:54.073Z,95636.30
2018-03-18T02:06:21.590Z,95630.50
2018-03-18T02:08:49.139Z,95637.20
2018-03-18T02:11:16.653Z,95639.43
2018-03-18T02:13:44.169Z,95636.78
2018-03-18T02:16:11.706Z,95635.34
2018-03-18T02:18:39.218Z,95628.97
2018-03-18T02:21:06.914Z,95638.11
2018-03-18T02:23:34.430Z,95629.09
2018-03-18T02:26:01.941Z,95632.16
2018-03-18T02:28:29.477Z,95631.76
2018-03-18T02:30:57.002Z,95634.17
2018-03-18T02:33:24.723Z,95633.11
2018-03-18T02:35:52.495Z,95632.02
2018-03-18T02:38:20.009Z,95629.44
2018-03-18T02:40:47.567Z,95622.20
2018-03-18T02:43:15.086Z,95625.50
2018-03-18T02:45:42.717Z,95626.98
2018-03-18T02:48:10.231Z,95630.05
2018-03-18T02:50:37.742Z,95629.72
2018-03-18T02:53:05.292Z,95626.62
2018-03-18T02:55:32.809Z,95624.76
2018-03-18T02:58:01.421Z,95626.40
2018-03-18T03:00:28.933Z,95625.37
2018-03-18T03:02:56.449Z,95626.33
2018-03-18T03:05:23.990Z,95623.84
2018-03-18T03:07:51.515Z,95631.75
2018-03-18T03:10:19.324Z,95629.25
2018-03-18T03:12:46.832Z,95622.88
2018-03-18T03:15:14.429Z,95630.22
2018-03-18T03:17:41.968Z,95618.25
2018-03-18T03:20:09.481Z,95628.62
2018-03-18T03:22:37.421Z,95629.80
2018-03-18T03:25:04.934Z,95629.89
2018-03-18T03:27:32.456Z,95631.76
2018-03-18T03:29:59.997Z,95638.69
2018-03-18T03:32:27.509Z,95638.66
2018-03-18T03:34:55.057Z,95638.52
2018-03-18T03:37:22.578Z,95634.21
2018-03-18T03:39:50.093Z,95640.95
2018-03-18T03:42:17.630Z,95639.89
2018-03-18T03:44:45.141Z,95641.98
2018-03-18T03:47:12.813Z,95640.77
2018-03-18T03:49:40.322Z,95639.31
2018-03-18T03:52:07.851Z,95642.50
2018-03-18T03:54:35.395Z,95640.13
2018-03-18T03:57:02.912Z,95643.56
2018-03-18T03:59:30.471Z,95642.22
2018-03-18T04:01:57.981Z,95644.45
2018-03-18T04:04:25.543Z,95645.06
2018-03-18T04:06:53.068Z,95644.06
2018-03-18T04:09:20.590Z,95646.89
2018-03-18T04:11:48.141Z,95645.70
2018-03-18T04:14:15.662Z,95646.48
2018-03-18T04:16:43.178Z,95651.21
2018-03-18T04:19:11.627Z,95648.42
2018-03-18T04:21:39.142Z,95654.23
2018-03-18T04:24:06.836Z,95650.09
2018-03-18T04:26:34.366Z,95659.98
2018-03-18T04:29:01.887Z,95651.98
2018-03-18T04:31:29.433Z,95655.58
2018-03-18T04:33:56.990Z,95654.88
2018-03-18T04:36:24.530Z,95648.91
2018-03-18T04:38:52.046Z,95654.81
2018-03-18T04:41:19.580Z,95657.13
2018-03-18T04:43:47.129Z,95657.06
2018-03-18T04:46:14.649Z,95656.19
2018-03-18T04:48:42.413Z,95657.98
2018-03-18T04:51:09.937Z,95655.31
2018-03-18T04:53:37.458Z,95658.84
2018-03-18T04:56:04.998Z,95656.95
2018-03-18T04:58:33.490Z,95654.18
2018-03-18T05:01:01.534Z,95658.08
2018-03-18T05:03:29.055Z,95660.98
2018-03-18T05:05:56.578Z,95662.87
2018-03-18T05:08:24.647Z,95659.37
2018-03-18T05:10:52.171Z,95665.78
2018-03-18T05:13:19.942Z,95662.11
2018-03-18T05:15:47.474Z,95662.33
2018-03-18T05:18:14.986Z,95670.27
2018-03-18T05:20:42.529Z,95662.64
2018-03-18T05:23:10.054Z,95662.34
2018-03-18T05:25:37.619Z,95667.95
2018-03-18T05:28:05.139Z,95665.58
2018-03-18T05:30:32.653Z,95669.50
2018-03-18T05:33:00.215Z,95676.44
2018-03-18T05:35:27.729Z,95681.81
2018-03-18T05:37:55.387Z,95679.91
2018-03-18T05:40:22.910Z,95684.36
2018-03-18T05:42:50.450Z,95692.67
2018-03-18T05:45:17.986Z,95693.60
2018-03-18T05:47:45.505Z,95696.08
2018-03-18T05:50:13.053Z,95697.16
2018-03-18T05:52:40.569Z,95699.05
2018-03-18T05:55:08.085Z,95696.86
2018-03-18T05:57:35.631Z,95706.58
2018-03-18T06:00:03.142Z,95713.03
2018-03-18T06:02:30.689Z,95705.98
2018-03-18T06:04:58.200Z,95705.28
2018-03-18T06:07:25.715Z,95710.17
2018-03-18T06:09:53.259Z,95710.13
2018-03-18T06:12:20.778Z,95708.02
2018-03-18T06:14:48.514Z,95709.89
2018-03-18T06:17:16.026Z,95713.73
2018-03-18T06:19:43.540Z,95707.70
2018-03-18T06:22:11.081Z,95714.62
2018-03-18T06:24:38.629Z,95713.38
2018-03-18T06:27:06.181Z,95719.55
2018-03-18T06:29:33.716Z,95723.20
2018-03-18T06:32:01.230Z,95729.91
2018-03-18T06:34:28.773Z,95729.50
2018-03-18T06:36:56.286Z,95733.52
2018-03-18T06:39:24.012Z,95733.71
2018-03-18T06:41:51.527Z,95729.77
2018-03-18T06:44:19.059Z,95737.39
2018-03-18T06:46:46.606Z,95740.27
2018-03-18T06:49:14.121Z,95738.48
2018-03-18T06:51:42.112Z,95740.92
2018-03-18T06:54:09.741Z,95753.77
2018-03-18T06:56:37.268Z,95759.98
2018-03-18T06:59:04.813Z,95752.55
2018-03-18T07:01:32.798Z,95759.87
2018-03-18T07:04:00.556Z,95753.42
2018-03-18T07:06:28.078Z,95760.81
2018-03-18T07:08:55.662Z,95759.63
2018-03-18T07:11:23.222Z,95765.50
2018-03-18T07:13:50.750Z,95772.61
2018-03-18T07:16:18.415Z,95782.06
2018-03-18T07:18:45.929Z,95776.30
2018-03-18T07:21:13.445Z,95779.02
2018-03-18T07:23:41.006Z,95775.75
2018-03-18T07:26:08.672Z,95779.78
2018-03-18T07:28:36.544Z,95784.47
2018-03-18T07:31:04.074Z,95792.09
2018-03-18T07:33:31.762Z,95794.83
2018-03-18T07:35:59.312Z,95797.55
2018-03-18T07:38:26.838Z,95801.69
2018-03-18T07:40:54.626Z,95809.32
2018-03-18T07:43:22.171Z,95806.21
2018-03-18T07:45:49.699Z,95807.64
2018-03-18T07:48:17.307Z,95813.61
2018-03-18T07:50:44.951Z,95817.18
2018-03-18T07:53:12.591Z,95819.30
2018-03-18T07:55:40.102Z,95813.71
2018-03-18T07:58:07.621Z,95818.63
2018-03-18T08:00:35.166Z,95814.89
2018-03-18T08:03:02.716Z,95822.80
2018-03-18T08:05:30.646Z,95821.06
2018-03-18T08:07:58.185Z,95826.74
2018-03-18T08:10:25.765Z,95828.88
2018-03-18T08:12:53.427Z,95834.77
2018-03-18T08:15:20.964Z,95835.88
2018-03-18T08:17:48.519Z,95834.81
2018-03-18T08:20:16.108Z,95840.05
2018-03-18T08:22:43.662Z,95846.20
2018-03-18T08:25:11.533Z,95842.86
2018-03-18T08:27:39.087Z,95843.09
2018-03-18T08:30:06.915Z,95844.88
2018-03-18T08:32:34.620Z,95847.61
2018-03-18T08:35:02.285Z,95846.02
2018-03-18T08:37:30.787Z,95851.56
2018-03-18T08:39:58.331Z,95853.00
2018-03-18T08:42:29.116Z,95855.48
2018-03-18T08:44:56.677Z,95853.20
2018-03-18T08:47:24.483Z,95852.62
2018-03-18T08:49:52.251Z,95851.38
2018-03-18T08:52:19.863Z,95857.55
2018-03-18T08:54:47.759Z,95854.25
2018-03-18T08:57:15.280Z,95849.56
2018-03-18T08:59:43.099Z,95855.84
2018-03-18T09:02:10.928Z,95858.01
2018-03-18T09:04:39.035Z,95862.13
2018-03-18T09:07:06.913Z,95862.63
2018-03-18T09:09:34.732Z,95852.04
2018-03-18T09:12:02.533Z,95860.30
2018-03-18T09:14:30.398Z,95866.72
2018-03-18T09:16:58.572Z,95869.91
2018-03-18T09:19:26.642Z,95869.77
2018-03-18T09:21:54.919Z,95865.14
2018-03-18T09:24:22.912Z,95872.75
2018-03-18T09:26:50.960Z,95874.77
2018-03-18T09:29:18.824Z,95868.94
2018-03-18T09:31:47.716Z,95866.62
2018-03-18T09:34:16.105Z,95871.47
2018-03-18T09:36:44.574Z,95871.53
2018-03-18T09:39:12.524Z,95871.39
2018-03-18T09:41:41.292Z,95874.51
2018-03-18T09:44:10.037Z,95869.78
2018-03-18T09:46:37.848Z,95873.25
2018-03-18T09:49:05.750Z,95880.72
2018-03-18T09:51:33.720Z,95873.98
2018-03-18T09:54:01.586Z,95883.22
2018-03-18T09:56:29.704Z,95880.97
2018-03-18T09:58:58.034Z,95882.77
2018-03-18T10:01:26.107Z,95879.71
2018-03-18T10:03:54.041Z,95881.06
2018-03-18T10:06:21.910Z,95887.73
2018-03-18T10:08:50.013Z,95893.27
2018-03-18T10:11:17.982Z,95888.54
2018-03-18T10:13:45.851Z,95885.96
2018-03-18T10:16:13.772Z,95890.31
2018-03-18T10:18:42.093Z,95896.45
2018-03-18T10:21:11.235Z,95891.63
2018-03-18T10:23:39.123Z,95890.44
2018-03-18T10:26:07.536Z,95890.81
2018-03-18T10:28:35.508Z,95889.02
2018-03-18T10:31:03.478Z,95879.70
2018-03-18T10:33:31.714Z,95885.38
2018-03-18T10:35:59.616Z,95891.48
2018-03-18T10:38:27.587Z,95883.56
2018-03-18T10:40:55.657Z,95889.81
2018-03-18T10:43:23.730Z,95887.23
2018-03-18T10:45:52.003Z,95884.63
2018-03-18T10:48:19.869Z,95887.06
2018-03-18T10:50:47.805Z,95892.84
2018-03-18T10:53:16.276Z,95882.39
2018-03-18T10:55:44.189Z,95889.52
2018-03-18T10:58:12.257Z,95889.42
2018-03-18T11:00:45.081Z,95896.30
2018-03-18T11:03:13.110Z,95901.16
2018-03-18T11:05:41.181Z,95907.93
2018-03-18T11:08:09.645Z,95907.08
2018-03-18T11:10:37.713Z,95903.19
2018-03-18T11:13:05.808Z,95905.55
2018-03-18T11:15:33.746Z,95908.28
2018-03-18T11:18:02.321Z,95896.48
2018-03-18T11:20:30.329Z,95901.69
2018-03-18T11:22:58.296Z,95901.72
2018-03-18T11:25:26.564Z,95907.97
2018-03-18T11:27:54.763Z,95905.77
2018-03-18T11:30:22.546Z,95909.01
2018-03-18T11:32:50.477Z,95920.59
2018-03-18T11:35:18.446Z,95913.38
2018-03-18T11:37:46.310Z,95911.66
2018-03-18T11:40:14.690Z,95914.61
2018-03-18T11:42:42.556Z,95916.78
2018-03-18T11:45:10.424Z,95924.11
2018-03-18T11:47:38.495Z,95923.06
2018-03-18T11:50:06.362Z,95919.27
2018-03-18T11:52:34.434Z,95914.45
2018-03-18T11:55:02.299Z,95916.08
2018-03-18T11:57:30.129Z,95922.77
2018-03-18T11:59:58.032Z,95915.02
2018-03-18T12:02:25.898Z,95920.98
2018-03-18T12:04:54.028Z,95920.25
2018-03-18T12:07:22.349Z,95924.98
2018-03-18T12:09:50.213Z,95914.70
2018-03-18T12:12:18.182Z,95917.38
2018-03-18T12:14:46.049Z,95916.13
2018-03-18T12:17:14.023Z,95919.91
2018-03-18T12:19:41.883Z,95920.36
2018-03-18T12:22:09.751Z,95925.05
2018-03-18T12:24:37.620Z,95926.58
2018-03-18T12:27:05.449Z,95921.70
2018-03-18T12:29:33.658Z,95927.01
2018-03-18T12:32:01.523Z,95925.24
2018-03-18T12:34:29.391Z,95918.16
2018-03-18T12:36:57.667Z,95924.67
2018-03-18T12:39:26.410Z,95922.13
2018-03-18T12:41:54.701Z,95919.86
2018-03-18T12:44:23.211Z,95931.52
2018-03-18T12:46:51.081Z,95932.82
2018-03-18T12:49:19.354Z,95930.71
2018-03-18T12:51:47.220Z,95927.55
2018-03-18T12:54:15.108Z,95938.80
2018-03-18T12:56:42.954Z,95939.95
2018-03-18T12:59:10.820Z,95934.69
2018-03-18T13:01:38.788Z,95933.94
2018-03-18T13:04:06.551Z,95932.06
2018-03-18T13:06:34.728Z,95933.07
2018-03-18T13:09:02.559Z,95931.24
2018-03-18T13:11:30.325Z,95933.69
2018-03-18T13:13:58.222Z,95938.44
2018-03-18T13:16:26.059Z,95933.98
2018-03-18T13:18:54.277Z,95935.59
2018-03-18T13:21:22.027Z,95928.28
2018-03-18T13:23:49.791Z,95931.80
2018-03-18T13:26:17.629Z,95935.91
2018-03-18T13:28:45.527Z,95930.89
2018-03-18T13:31:13.707Z,95934.65
2018-03-18T13:33:41.667Z,95936.73
2018-03-18T13:36:09.584Z,95934.02
2018-03-18T13:38:37.517Z,95941.53
2018-03-18T13:41:07.109Z,95945.05
2018-03-18T13:43:35.077Z,95936.25
2018-03-18T13:46:02.842Z,95946.02
2018-03-18T13:48:30.674Z,95948.01
2018-03-18T13:50:58.574Z,95962.58
2018-03-18T13:53:26.440Z,95952.67
2018-03-18T13:55:54.411Z,95965.96
2018-03-18T13:58:22.240Z,95963.31
2018-03-18T14:00:50.107Z,95968.34
2018-03-18T14:03:17.974Z,95971.88
2018-03-18T14:05:46.140Z,95970.75
2018-03-18T14:08:14.006Z,95967.92
2018-03-18T14:10:41.774Z,95967.33
2018-03-18T14:13:09.681Z,95970.41
2018-03-18T14:15:37.547Z,95971.83
2018-03-18T14:18:05.517Z,95973.51
2018-03-18T14:20:33.764Z,95970.06
2018-03-18T14:23:01.631Z,95969.53
2018-03-18T14:25:29.711Z,95976.20
2018-03-18T14:27:57.799Z,95977.86
2018-03-18T14:30:26.179Z,95988.81
2018-03-18T14:32:55.070Z,95995.89
2018-03-18T14:35:22.937Z,95995.23
2018-03-18T14:37:51.320Z,95993.34
2018-03-18T14:40:19.247Z,95996.83
2018-03-18T14:42:47.112Z,95997.34
2018-03-18T14:45:15.219Z,95995.80
2018-03-18T14:47:43.087Z,96000.91
2018-03-18T14:50:11.056Z,96003.31
2018-03-18T14:52:39.024Z,96006.77
2018-03-18T14:55:06.992Z,96009.82
2018-03-18T14:57:35.107Z,96014.90
2018-03-18T15:00:03.550Z,96010.83
2018-03-18T15:02:32.436Z,96009.33
2018-03-18T15:05:00.404Z,96018.30
2018-03-18T15:07:28.271Z,96021.17
2018-03-18T15:09:56.601Z,96025.58
2018-03-18T15:12:24.621Z,96025.83
2018-03-18T15:14:52.998Z,96029.02
2018-03-18T15:17:21.445Z,96027.84
2018-03-18T15:19:50.267Z,96023.81
2018-03-18T15:22:18.644Z,96032.90
2018-03-18T15:24:46.510Z,96035.14
2018-03-18T15:27:15.194Z,96036.17
2018-03-18T15:29:43.128Z,96042.05
2018-03-18T15:32:11.133Z,96046.22
2018-03-18T15:34:39.058Z,96047.67
2018-03-18T15:37:06.969Z,96050.95
2018-03-18T15:39:35.244Z,96056.74
2018-03-18T15:42:03.213Z,96057.87
2018-03-18T15:44:31.080Z,96061.41
2018-03-18T15:46:59.355Z,96063.13
2018-03-18T15:49:27.324Z,96068.56
2018-03-18T15:51:55.703Z,96072.70
2018-03-18T15:54:23.673Z,96078.63
2018-03-18T15:56:51.540Z,96074.23
2018-03-18T15:59:19.815Z,96082.13
2018-03-18T16:01:47.637Z,96077.41
2018-03-18T16:04:15.651Z,96080.48
2018-03-18T16:06:43.721Z,96083.40
2018-03-18T16:09:11.589Z,96087.02
2018-03-18T16:11:39.763Z,96081.75
2018-03-18T16:14:07.675Z,96086.83
2018-03-18T16:16:35.596Z,96086.83
2018-03-18T16:19:03.464Z,96092.75
2018-03-18T16:21:31.333Z,96100.05
2018-03-18T16:23:59.504Z,96098.08
2018-03-18T16:26:27.368Z,96096.88
2018-03-18T16:28:55.549Z,96106.64
2018-03-18T16:31:23.512Z,96110.32
2018-03-18T16:33:51.378Z,96109.62
2018-03-18T16:36:20.478Z,96109.56
2018-03-18T16:38:48.353Z,96106.37
2018-03-18T16:41:16.212Z,96107.50
2018-03-18T16:43:44.178Z,96114.42
2018-03-18T16:46:12.144Z,96128.56
2018-03-18T16:48:40.484Z,96123.05
2018-03-18T16:51:08.344Z,96134.98
2018-03-18T16:53:36.736Z,96130.99
2018-03-18T16:56:05.042Z,96133.25
2018-03-18T16:58:32.937Z,96136.03
2018-03-18T17:01:01.186Z,96144.77
2018-03-18T17:03:29.691Z,96140.43
2018-03-18T17:05:57.840Z,96143.10
2018-03-18T17:08:25.812Z,96151.23
2018-03-18T17:10:53.675Z,96147.94
2018-03-18T17:13:21.645Z,96158.20
2018-03-18T17:15:49.512Z,96159.19
2018-03-18T17:18:17.552Z,96160.88
2018-03-18T17:20:45.551Z,96168.60
2018-03-18T17:23:13.484Z,96167.63
2018-03-18T17:25:42.410Z,96175.58
2018-03-18T17:28:10.241Z,96184.05
2018-03-18T17:30:38.932Z,96186.16
2018-03-18T17:33:07.543Z,96187.73
2018-03-18T17:35:35.466Z,96194.03
2018-03-18T17:38:03.486Z,96202.12
2018-03-18T17:40:31.560Z,96210.33
2018-03-18T17:43:00.840Z,96215.26
2018-03-18T17:45:40.702Z,96214.31
2018-03-18T17:48:20.347Z,96223.02
2018-03-18T17:51:00.023Z,96215.34
2018-03-18T17:53:39.804Z,96230.89
2018-03-18T17:59:09.666Z,96224.72
2018-03-18T18:01:38.249Z,96225.39
2018-03-18T18:04:06.510Z,96226.22
2018-03-18T18:06:34.392Z,96234.30
2018-03-18T18:09:02.873Z,96238.18
2018-03-18T18:11:31.470Z,96240.29
2018-03-18T18:13:59.732Z,96247.26
2018-03-18T18:16:27.925Z,96247.48
2018-03-18T18:18:56.899Z,96245.13
2018-03-18T18:21:24.826Z,96251.44
2018-03-18T18:23:53.158Z,96248.39
2018-03-18T18:26:21.009Z,96253.77
2018-03-18T18:28:49.491Z,96251.32
2018-03-18T18:31:17.972Z,96257.70
2018-03-18T18:33:45.809Z,96262.03
2018-03-18T18:36:14.175Z,96258.34
2018-03-18T18:38:42.084Z,96264.27
2018-03-18T18:41:10.872Z,96257.81
2018-03-18T18:43:38.841Z,96261.33
2018-03-18T18:46:06.707Z,96258.39
2018-03-18T18:48:35.495Z,96261.55
2018-03-18T18:51:03.771Z,96266.33
2018-03-18T18:53:32.013Z,96268.88
2018-03-18T18:55:59.914Z,96270.91
2018-03-18T18:58:27.746Z,96273.56
2018-03-18T19:00:56.568Z,96267.80
2018-03-18T19:03:24.434Z,96276.62
2018-03-18T19:05:52.510Z,96276.23
2018-03-18T19:08:20.542Z,96275.46
2018-03-18T19:10:48.563Z,96277.81
2018-03-18T19:13:17.336Z,96275.34
2018-03-18T19:15:46.223Z,96282.28
2018-03-18T19:18:16.038Z,96284.06
2018-03-18T19:20:44.649Z,96290.92
2018-03-18T19:23:12.589Z,96290.23
2018-03-18T19:25:40.967Z,96284.28
2018-03-18T19:28:08.918Z,96283.31
2018-03-18T19:30:37.615Z,96286.62
2018-03-18T19:33:05.489Z,96286.95
2018-03-18T19:35:33.354Z,96287.36
2018-03-18T19:38:01.238Z,96291.52
2018-03-18T19:40:29.292Z,96285.94
2018-03-18T19:42:58.184Z,96288.14
2018-03-18T19:45:25.975Z,96287.52
2018-03-18T19:47:54.204Z,96294.61
2018-03-18T19:50:22.606Z,96292.02
2018-03-18T19:52:50.983Z,96294.45
2018-03-18T19:55:20.224Z,96296.53
2018-03-18T19:57:48.429Z,96295.27
2018-03-18T20:00:16.321Z,96295.32
2018-03-18T20:02:44.855Z,96303.34
2018-03-18T20:05:12.692Z,96293.11
2018-03-18T20:07:40.743Z,96304.80
2018-03-18T20:10:10.039Z,96301.98
2018-03-18T20:12:37.909Z,96298.84
2018-03-18T20:15:06.556Z,96301.85
2018-03-18T20:17:34.422Z,96309.49
2018-03-18T20:20:02.631Z,96298.07
2018-03-18T20:22:31.168Z,96305.51
2018-03-18T20:24:59.913Z,96303.80
2018-03-18T20:27:28.266Z,96308.12
2018-03-18T20:29:56.230Z,96309.98
2018-03-18T20:32:24.629Z,96305.70
2018-03-18T20:34:53.453Z,96313.56
2018-03-18T20:37:21.386Z,96309.49
2018-03-18T20:39:50.069Z,96310.90
2018-03-18T20:42:18.243Z,96314.89
2018-03-18T20:44:46.416Z,96322.19
2018-03-18T20:47:14.712Z,96321.05
2018-03-18T20:49:42.863Z,96316.88
2018-03-18T20:52:10.803Z,96322.25
2018-03-18T20:54:39.916Z,96330.75
2018-03-18T20:57:07.805Z,96322.45
2018-03-18T20:59:35.979Z,96330.97
2018-03-18T21:02:04.352Z,96327.95
2018-03-18T21:04:32.308Z,96330.00
2018-03-18T21:07:01.077Z,96327.02
2018-03-18T21:09:29.076Z,96324.98
2018-03-18T21:11:57.050Z,96329.52
2018-03-18T21:14:25.526Z,96324.41
2018-03-18T21:16:53.494Z,96320.83
2018-03-18T21:19:21.360Z,96322.36
2018-03-18T21:21:50.149Z,96322.07
2018-03-18T21:24:18.019Z,96322.63
2018-03-18T21:26:45.789Z,96325.73
2018-03-18T21:29:13.668Z,96317.59
2018-03-18T21:31:41.618Z,96322.66
2018-03-18T21:34:10.526Z,96320.50
2018-03-18T21:36:38.424Z,96329.34
2018-03-18T21:39:06.364Z,96325.27
2018-03-18T21:41:35.231Z,96324.03
2018-03-18T21:44:03.897Z,96329.16
2018-03-18T21:46:31.886Z,96334.08
2018-03-18T21:48:59.832Z,96333.88
2018-03-18T21:51:27.727Z,96336.82
2018-03-18T21:53:55.664Z,96331.67
2018-03-18T21:56:23.631Z,96326.93
2018-03-18T21:58:51.699Z,96330.03
2018-03-18T22:01:19.810Z,96339.19
2018-03-18T22:03:47.917Z,96341.13
2018-03-18T22:06:15.945Z,96342.30
2018-03-18T22:08:44.189Z,96341.77
2018-03-18T22:11:12.863Z,96340.48
2018-03-18T22:13:40.774Z,96331.66
2018-03-18T22:16:08.788Z,96338.48
2018-03-18T22:18:36.814Z,96339.17
2018-03-18T22:21:04.671Z,96341.55
2018-03-18T22:23:32.888Z,96341.34
2018-03-18T22:26:00.720Z,96335.87
2018-03-18T22:28:28.587Z,96340.22
2018-03-18T22:30:56.452Z,96338.03
2018-03-18T22:33:24.320Z,96341.05
2018-03-18T22:35:52.618Z,96331.84
2018-03-18T22:38:20.565Z,96333.95
2018-03-18T22:40:48.327Z,96333.91
2018-03-18T22:43:16.081Z,96340.97
2018-03-18T22:45:43.959Z,96338.06
2018-03-18T22:48:11.928Z,96343.49
2018-03-18T22:50:39.594Z,96340.55
2018-03-18T22:53:07.245Z,96334.73
2018-03-18T22:55:35.117Z,96330.66
2018-03-18T22:58:02.991Z,96339.62
2018-03-18T23:00:31.671Z,96338.48
2018-03-18T23:02:59.639Z,96341.13
2018-03-18T23:05:27.363Z,96343.39
2018-03-18T23:07:55.136Z,96343.17
2018-03-18T23:10:22.784Z,96343.11
2018-03-18T23:12:50.687Z,96347.02
2018-03-18T23:15:18.221Z,96342.25
2018-03-18T23:17:45.859Z,96346.75
2018-03-18T23:20:13.497Z,96338.75
2018-03-18T23:22:41.105Z,96345.58
2018-03-18T23:25:09.301Z,96342.05
2018-03-18T23:27:37.177Z,96344.71
2018-03-18T23:30:04.839Z,96346.59
2018-03-18T23:32:32.606Z,96344.41
2018-03-18T23:35:00.368Z,96346.50
2018-03-18T23:37:28.543Z,96345.57
2018-03-18T23:39:56.093Z,96347.53
2018-03-18T23:42:23.649Z,96353.59
2018-03-18T23:44:51.322Z,96350.86
2018-03-18T23:47:18.906Z,96351.41
2018-03-18T23:49:46.627Z,96347.88
2018-03-18T23:52:14.306Z,96347.32
2018-03-18T23:54:41.850Z,96353.66
2018-03-18T23:57:09.440Z,96348.64
2018-03-18T23:59:38.008Z,96349.74
